sensor_id;sensor_type;location;lat;lon;timestamp;P1;durP1;ratioP1;P2;durP2;ratioP2
8139;SDS011;4111;50.972;7.072;2022-11-22T00:00:14;6.13;;;2.27;;
8139;SDS011;4111;50.972;7.072;2022-11-22T00:02:42;4.60;;;1.97;;
8139;SDS011;4111;50.972;7.072;2022-11-22T00:05:09;5.07;;;2.17;;
8139;SDS011;4111;50.972;7.072;2022-11-22T00:07:35;5.90;;;2.20;;
8139;SDS011;4111;50.972;7.072;2022-11-22T00:10:07;4.57;;;2.00;;
8139;SDS011;4111;50.972;7.072;2022-11-22T00:12:35;6.37;;;2.60;;
8139;SDS011;4111;50.972;7.072;2022-11-22T00:15:02;6.23;;;2.50;;
8139;SDS011;4111;50.972;7.072;2022-11-22T00:17:33;4.67;;;2.37;;
8139;SDS011;4111;50.972;7.072;2022-11-22T00:20:00;3.63;;;1.97;;
8139;SDS011;4111;50.972;7.072;2022-11-22T00:22:26;4.80;;;2.03;;
8139;SDS011;4111;50.972;7.072;2022-11-22T00:24:53;6.80;;;2.07;;
8139;SDS011;4111;50.972;7.072;2022-11-22T00:27:19;4.70;;;2.40;;
8139;SDS011;4111;50.972;7.072;2022-11-22T00:29:46;5.33;;;2.17;;
8139;SDS011;4111;50.972;7.072;2022-11-22T00:32:12;6.67;;;3.40;;
8139;SDS011;4111;50.972;7.072;2022-11-22T00:34:40;7.53;;;2.60;;
8139;SDS011;4111;50.972;7.072;2022-11-22T00:37:06;5.13;;;2.03;;
8139;SDS011;4111;50.972;7.072;2022-11-22T00:39:33;5.27;;;2.20;;
8139;SDS011;4111;50.972;7.072;2022-11-22T00:42:00;4.93;;;2.40;;
8139;SDS011;4111;50.972;7.072;2022-11-22T00:44:26;6.23;;;2.20;;
8139;SDS011;4111;50.972;7.072;2022-11-22T00:46:53;6.50;;;2.30;;
8139;SDS011;4111;50.972;7.072;2022-11-22T00:49:19;6.37;;;2.63;;
8139;SDS011;4111;50.972;7.072;2022-11-22T00:51:46;3.77;;;2.20;;
8139;SDS011;4111;50.972;7.072;2022-11-22T00:54:13;4.07;;;2.20;;
8139;SDS011;4111;50.972;7.072;2022-11-22T00:56:39;5.30;;;2.80;;
8139;SDS011;4111;50.972;7.072;2022-11-22T00:59:06;7.23;;;2.57;;
8139;SDS011;4111;50.972;7.072;2022-11-22T01:01:32;6.03;;;2.10;;
8139;SDS011;4111;50.972;7.072;2022-11-22T01:03:59;9.27;;;3.17;;
8139;SDS011;4111;50.972;7.072;2022-11-22T01:06:25;3.50;;;2.03;;
8139;SDS011;4111;50.972;7.072;2022-11-22T01:08:52;2.97;;;1.83;;
8139;SDS011;4111;50.972;7.072;2022-11-22T01:11:18;6.90;;;2.43;;
8139;SDS011;4111;50.972;7.072;2022-11-22T01:13:45;3.30;;;2.00;;
8139;SDS011;4111;50.972;7.072;2022-11-22T01:16:12;2.70;;;2.37;;
8139;SDS011;4111;50.972;7.072;2022-11-22T01:18:39;4.17;;;2.20;;
8139;SDS011;4111;50.972;7.072;2022-11-22T01:21:06;5.73;;;2.13;;
8139;SDS011;4111;50.972;7.072;2022-11-22T01:23:33;5.17;;;2.13;;
8139;SDS011;4111;50.972;7.072;2022-11-22T01:26:00;3.73;;;1.80;;
8139;SDS011;4111;50.972;7.072;2022-11-22T01:28:27;4.83;;;2.23;;
8139;SDS011;4111;50.972;7.072;2022-11-22T01:30:53;7.90;;;2.60;;
8139;SDS011;4111;50.972;7.072;2022-11-22T01:33:20;3.97;;;2.10;;
8139;SDS011;4111;50.972;7.072;2022-11-22T01:35:47;3.03;;;2.17;;
8139;SDS011;4111;50.972;7.072;2022-11-22T01:38:14;3.07;;;2.20;;
8139;SDS011;4111;50.972;7.072;2022-11-22T01:40:40;4.50;;;1.87;;
8139;SDS011;4111;50.972;7.072;2022-11-22T01:43:15;2.83;;;1.90;;
8139;SDS011;4111;50.972;7.072;2022-11-22T01:45:45;6.10;;;2.00;;
8139;SDS011;4111;50.972;7.072;2022-11-22T01:48:17;5.13;;;1.67;;
8139;SDS011;4111;50.972;7.072;2022-11-22T01:50:57;3.50;;;1.87;;
8139;SDS011;4111;50.972;7.072;2022-11-22T01:53:29;4.90;;;1.87;;
8139;SDS011;4111;50.972;7.072;2022-11-22T01:55:59;4.30;;;2.23;;
8139;SDS011;4111;50.972;7.072;2022-11-22T01:58:29;3.90;;;2.00;;
8139;SDS011;4111;50.972;7.072;2022-11-22T02:00:58;5.23;;;2.17;;
8139;SDS011;4111;50.972;7.072;2022-11-22T02:03:26;5.10;;;2.20;;
8139;SDS011;4111;50.972;7.072;2022-11-22T02:05:54;5.67;;;2.30;;
8139;SDS011;4111;50.972;7.072;2022-11-22T02:08:24;4.00;;;1.90;;
8139;SDS011;4111;50.972;7.072;2022-11-22T02:10:56;3.93;;;2.37;;
8139;SDS011;4111;50.972;7.072;2022-11-22T02:13:26;8.43;;;2.17;;
8139;SDS011;4111;50.972;7.072;2022-11-22T02:15:54;4.47;;;1.73;;
8139;SDS011;4111;50.972;7.072;2022-11-22T02:18:20;4.67;;;1.83;;
8139;SDS011;4111;50.972;7.072;2022-11-22T02:20:47;1.60;;;1.50;;
8139;SDS011;4111;50.972;7.072;2022-11-22T02:23:25;2.50;;;1.50;;
8139;SDS011;4111;50.972;7.072;2022-11-22T02:25:59;4.03;;;1.80;;
8139;SDS011;4111;50.972;7.072;2022-11-22T02:28:28;2.17;;;1.67;;
8139;SDS011;4111;50.972;7.072;2022-11-22T02:30:56;4.33;;;2.00;;
8139;SDS011;4111;50.972;7.072;2022-11-22T02:33:23;2.73;;;1.67;;
8139;SDS011;4111;50.972;7.072;2022-11-22T02:35:49;2.53;;;1.63;;
8139;SDS011;4111;50.972;7.072;2022-11-22T02:38:18;2.63;;;1.80;;
8139;SDS011;4111;50.972;7.072;2022-11-22T02:43:27;1.67;;;1.57;;
8139;SDS011;4111;50.972;7.072;2022-11-22T02:46:04;3.27;;;1.60;;
8139;SDS011;4111;50.972;7.072;2022-11-22T02:48:32;1.83;;;1.37;;
8139;SDS011;4111;50.972;7.072;2022-11-22T02:50:59;5.10;;;1.80;;
8139;SDS011;4111;50.972;7.072;2022-11-22T02:53:28;2.80;;;1.53;;
8139;SDS011;4111;50.972;7.072;2022-11-22T02:55:56;3.10;;;1.60;;
8139;SDS011;4111;50.972;7.072;2022-11-22T02:58:22;2.47;;;1.50;;
8139;SDS011;4111;50.972;7.072;2022-11-22T03:00:49;3.90;;;1.67;;
8139;SDS011;4111;50.972;7.072;2022-11-22T03:03:15;2.10;;;1.77;;
8139;SDS011;4111;50.972;7.072;2022-11-22T03:05:42;5.30;;;1.83;;
8139;SDS011;4111;50.972;7.072;2022-11-22T03:08:08;3.87;;;1.87;;
8139;SDS011;4111;50.972;7.072;2022-11-22T03:10:34;5.07;;;1.80;;
8139;SDS011;4111;50.972;7.072;2022-11-22T03:13:01;5.17;;;1.40;;
8139;SDS011;4111;50.972;7.072;2022-11-22T03:15:28;3.10;;;1.60;;
8139;SDS011;4111;50.972;7.072;2022-11-22T03:17:58;2.87;;;1.30;;
8139;SDS011;4111;50.972;7.072;2022-11-22T03:20:25;4.90;;;1.33;;
8139;SDS011;4111;50.972;7.072;2022-11-22T03:22:52;2.90;;;1.60;;
8139;SDS011;4111;50.972;7.072;2022-11-22T03:25:19;2.10;;;1.40;;
8139;SDS011;4111;50.972;7.072;2022-11-22T03:27:45;4.47;;;1.70;;
8139;SDS011;4111;50.972;7.072;2022-11-22T03:30:12;3.57;;;1.43;;
8139;SDS011;4111;50.972;7.072;2022-11-22T03:32:39;4.13;;;1.53;;
8139;SDS011;4111;50.972;7.072;2022-11-22T03:35:05;3.23;;;1.47;;
8139;SDS011;4111;50.972;7.072;2022-11-22T03:37:32;5.40;;;1.57;;
8139;SDS011;4111;50.972;7.072;2022-11-22T03:39:59;4.50;;;1.50;;
8139;SDS011;4111;50.972;7.072;2022-11-22T03:42:25;3.03;;;1.43;;
8139;SDS011;4111;50.972;7.072;2022-11-22T03:44:52;3.33;;;1.57;;
8139;SDS011;4111;50.972;7.072;2022-11-22T03:47:18;3.43;;;1.30;;
8139;SDS011;4111;50.972;7.072;2022-11-22T03:49:44;2.73;;;1.40;;
8139;SDS011;4111;50.972;7.072;2022-11-22T03:52:11;1.93;;;1.30;;
8139;SDS011;4111;50.972;7.072;2022-11-22T03:54:37;5.10;;;1.80;;
8139;SDS011;4111;50.972;7.072;2022-11-22T03:57:04;4.30;;;1.80;;
8139;SDS011;4111;50.972;7.072;2022-11-22T03:59:30;1.80;;;1.23;;
8139;SDS011;4111;50.972;7.072;2022-11-22T04:01:57;5.77;;;1.83;;
8139;SDS011;4111;50.972;7.072;2022-11-22T04:04:24;1.90;;;1.50;;
8139;SDS011;4111;50.972;7.072;2022-11-22T04:06:50;4.53;;;1.77;;
8139;SDS011;4111;50.972;7.072;2022-11-22T04:09:17;3.60;;;1.60;;
8139;SDS011;4111;50.972;7.072;2022-11-22T04:11:43;2.10;;;1.60;;
8139;SDS011;4111;50.972;7.072;2022-11-22T04:14:10;3.60;;;1.50;;
8139;SDS011;4111;50.972;7.072;2022-11-22T04:16:56;2.53;;;1.30;;
8139;SDS011;4111;50.972;7.072;2022-11-22T04:19:22;2.90;;;1.50;;
8139;SDS011;4111;50.972;7.072;2022-11-22T04:21:48;4.97;;;1.70;;
8139;SDS011;4111;50.972;7.072;2022-11-22T04:24:15;5.90;;;1.90;;
8139;SDS011;4111;50.972;7.072;2022-11-22T04:27:00;4.57;;;1.70;;
8139;SDS011;4111;50.972;7.072;2022-11-22T04:29:26;2.57;;;1.67;;
8139;SDS011;4111;50.972;7.072;2022-11-22T04:31:53;6.07;;;1.43;;
8139;SDS011;4111;50.972;7.072;2022-11-22T04:34:38;4.57;;;1.70;;
8139;SDS011;4111;50.972;7.072;2022-11-22T04:37:05;3.93;;;1.97;;
8139;SDS011;4111;50.972;7.072;2022-11-22T04:39:32;4.23;;;1.70;;
8139;SDS011;4111;50.972;7.072;2022-11-22T04:41:58;4.10;;;1.53;;
8139;SDS011;4111;50.972;7.072;2022-11-22T04:44:44;7.53;;;2.57;;
8139;SDS011;4111;50.972;7.072;2022-11-22T04:47:12;5.43;;;1.80;;
8139;SDS011;4111;50.972;7.072;2022-11-22T04:50:04;5.63;;;1.80;;
8139;SDS011;4111;50.972;7.072;2022-11-22T04:52:53;7.03;;;1.80;;
8139;SDS011;4111;50.972;7.072;2022-11-22T04:55:22;5.37;;;2.20;;
8139;SDS011;4111;50.972;7.072;2022-11-22T04:57:48;5.00;;;1.80;;
8139;SDS011;4111;50.972;7.072;2022-11-22T05:00:22;5.17;;;1.70;;
8139;SDS011;4111;50.972;7.072;2022-11-22T05:02:49;4.57;;;1.90;;
8139;SDS011;4111;50.972;7.072;2022-11-22T05:05:15;3.83;;;1.70;;
8139;SDS011;4111;50.972;7.072;2022-11-22T05:07:42;6.20;;;2.10;;
8139;SDS011;4111;50.972;7.072;2022-11-22T05:10:08;6.70;;;1.93;;
8139;SDS011;4111;50.972;7.072;2022-11-22T05:12:35;8.60;;;2.30;;
8139;SDS011;4111;50.972;7.072;2022-11-22T05:15:01;6.73;;;1.67;;
8139;SDS011;4111;50.972;7.072;2022-11-22T05:17:28;6.13;;;2.07;;
8139;SDS011;4111;50.972;7.072;2022-11-22T05:19:54;7.03;;;1.90;;
8139;SDS011;4111;50.972;7.072;2022-11-22T05:22:21;3.27;;;2.07;;
8139;SDS011;4111;50.972;7.072;2022-11-22T05:25:07;8.67;;;3.07;;
8139;SDS011;4111;50.972;7.072;2022-11-22T05:27:34;6.57;;;1.97;;
8139;SDS011;4111;50.972;7.072;2022-11-22T05:30:00;6.03;;;2.30;;
8139;SDS011;4111;50.972;7.072;2022-11-22T05:32:28;4.33;;;1.90;;
8139;SDS011;4111;50.972;7.072;2022-11-22T05:34:58;5.20;;;1.90;;
8139;SDS011;4111;50.972;7.072;2022-11-22T05:37:25;3.90;;;1.90;;
8139;SDS011;4111;50.972;7.072;2022-11-22T05:39:52;9.80;;;2.20;;
8139;SDS011;4111;50.972;7.072;2022-11-22T05:42:18;4.70;;;1.70;;
8139;SDS011;4111;50.972;7.072;2022-11-22T05:44:45;6.10;;;2.17;;
8139;SDS011;4111;50.972;7.072;2022-11-22T05:47:11;6.03;;;2.30;;
8139;SDS011;4111;50.972;7.072;2022-11-22T05:49:38;5.43;;;2.50;;
8139;SDS011;4111;50.972;7.072;2022-11-22T05:52:05;5.00;;;1.90;;
8139;SDS011;4111;50.972;7.072;2022-11-22T05:54:31;8.63;;;2.23;;
8139;SDS011;4111;50.972;7.072;2022-11-22T05:56:58;11.30;;;2.60;;
8139;SDS011;4111;50.972;7.072;2022-11-22T05:59:24;10.77;;;2.63;;
8139;SDS011;4111;50.972;7.072;2022-11-22T06:01:51;14.23;;;2.53;;
8139;SDS011;4111;50.972;7.072;2022-11-22T06:04:17;7.50;;;2.73;;
8139;SDS011;4111;50.972;7.072;2022-11-22T06:06:45;10.80;;;2.87;;
8139;SDS011;4111;50.972;7.072;2022-11-22T06:09:12;5.87;;;2.70;;
8139;SDS011;4111;50.972;7.072;2022-11-22T06:11:39;7.75;;;2.80;;
8139;SDS011;4111;50.972;7.072;2022-11-22T06:14:07;8.63;;;2.87;;
8139;SDS011;4111;50.972;7.072;2022-11-22T06:16:34;10.57;;;3.00;;
8139;SDS011;4111;50.972;7.072;2022-11-22T06:19:00;13.57;;;2.60;;
8139;SDS011;4111;50.972;7.072;2022-11-22T06:21:27;10.30;;;2.60;;
8139;SDS011;4111;50.972;7.072;2022-11-22T06:23:53;8.50;;;2.40;;
8139;SDS011;4111;50.972;7.072;2022-11-22T06:26:21;12.03;;;2.77;;
8139;SDS011;4111;50.972;7.072;2022-11-22T06:28:49;10.60;;;3.13;;
8139;SDS011;4111;50.972;7.072;2022-11-22T06:31:17;8.20;;;2.63;;
8139;SDS011;4111;50.972;7.072;2022-11-22T06:33:45;10.17;;;2.87;;
8139;SDS011;4111;50.972;7.072;2022-11-22T06:36:13;10.77;;;2.60;;
8139;SDS011;4111;50.972;7.072;2022-11-22T06:38:44;7.83;;;2.80;;
8139;SDS011;4111;50.972;7.072;2022-11-22T06:41:13;7.60;;;2.07;;
8139;SDS011;4111;50.972;7.072;2022-11-22T06:43:44;11.57;;;2.60;;
8139;SDS011;4111;50.972;7.072;2022-11-22T06:46:15;12.63;;;2.97;;
8139;SDS011;4111;50.972;7.072;2022-11-22T06:48:45;9.87;;;3.37;;
8139;SDS011;4111;50.972;7.072;2022-11-22T06:51:14;9.93;;;2.83;;
8139;SDS011;4111;50.972;7.072;2022-11-22T06:53:43;8.60;;;2.40;;
8139;SDS011;4111;50.972;7.072;2022-11-22T06:56:17;11.13;;;2.87;;
8139;SDS011;4111;50.972;7.072;2022-11-22T06:58:45;13.33;;;2.90;;
8139;SDS011;4111;50.972;7.072;2022-11-22T07:01:13;7.77;;;2.67;;
8139;SDS011;4111;50.972;7.072;2022-11-22T07:03:47;7.87;;;2.30;;
8139;SDS011;4111;50.972;7.072;2022-11-22T07:06:15;10.37;;;2.20;;
8139;SDS011;4111;50.972;7.072;2022-11-22T07:08:43;9.13;;;2.67;;
8139;SDS011;4111;50.972;7.072;2022-11-22T07:11:11;8.73;;;3.43;;
8139;SDS011;4111;50.972;7.072;2022-11-22T07:13:39;8.23;;;3.00;;
8139;SDS011;4111;50.972;7.072;2022-11-22T07:16:07;7.40;;;2.77;;
8139;SDS011;4111;50.972;7.072;2022-11-22T07:18:35;11.20;;;2.97;;
8139;SDS011;4111;50.972;7.072;2022-11-22T07:21:03;7.47;;;2.73;;
8139;SDS011;4111;50.972;7.072;2022-11-22T07:23:39;11.87;;;2.83;;
8139;SDS011;4111;50.972;7.072;2022-11-22T07:26:06;13.07;;;2.93;;
8139;SDS011;4111;50.972;7.072;2022-11-22T07:28:33;9.43;;;2.87;;
8139;SDS011;4111;50.972;7.072;2022-11-22T07:31:00;7.77;;;2.83;;
8139;SDS011;4111;50.972;7.072;2022-11-22T07:33:27;11.63;;;2.77;;
8139;SDS011;4111;50.972;7.072;2022-11-22T07:35:54;9.60;;;3.20;;
8139;SDS011;4111;50.972;7.072;2022-11-22T07:38:21;11.83;;;3.87;;
8139;SDS011;4111;50.972;7.072;2022-11-22T07:40:47;31.73;;;12.30;;
8139;SDS011;4111;50.972;7.072;2022-11-22T07:43:14;16.50;;;5.97;;
8139;SDS011;4111;50.972;7.072;2022-11-22T07:45:40;12.37;;;3.00;;
8139;SDS011;4111;50.972;7.072;2022-11-22T07:48:07;7.93;;;2.60;;
8139;SDS011;4111;50.972;7.072;2022-11-22T07:50:33;9.60;;;2.53;;
8139;SDS011;4111;50.972;7.072;2022-11-22T07:52:59;11.93;;;2.80;;
8139;SDS011;4111;50.972;7.072;2022-11-22T07:55:26;8.03;;;2.60;;
8139;SDS011;4111;50.972;7.072;2022-11-22T07:57:53;7.63;;;2.70;;
8139;SDS011;4111;50.972;7.072;2022-11-22T08:00:19;9.97;;;2.40;;
8139;SDS011;4111;50.972;7.072;2022-11-22T08:02:46;9.43;;;2.40;;
8139;SDS011;4111;50.972;7.072;2022-11-22T08:05:13;9.43;;;2.50;;
8139;SDS011;4111;50.972;7.072;2022-11-22T08:07:44;10.47;;;2.20;;
8139;SDS011;4111;50.972;7.072;2022-11-22T08:10:11;7.03;;;2.30;;
8139;SDS011;4111;50.972;7.072;2022-11-22T08:12:37;4.07;;;2.13;;
8139;SDS011;4111;50.972;7.072;2022-11-22T08:15:04;7.27;;;2.60;;
8139;SDS011;4111;50.972;7.072;2022-11-22T08:17:31;9.53;;;2.13;;
8139;SDS011;4111;50.972;7.072;2022-11-22T08:19:57;8.87;;;2.30;;
8139;SDS011;4111;50.972;7.072;2022-11-22T08:22:24;8.03;;;1.93;;
8139;SDS011;4111;50.972;7.072;2022-11-22T08:24:50;9.37;;;2.50;;
8139;SDS011;4111;50.972;7.072;2022-11-22T08:27:16;9.73;;;2.63;;
8139;SDS011;4111;50.972;7.072;2022-11-22T08:29:43;11.13;;;4.37;;
8139;SDS011;4111;50.972;7.072;2022-11-22T08:32:09;10.10;;;4.03;;
8139;SDS011;4111;50.972;7.072;2022-11-22T08:34:36;9.20;;;4.30;;
8139;SDS011;4111;50.972;7.072;2022-11-22T08:37:04;9.10;;;3.23;;
8139;SDS011;4111;50.972;7.072;2022-11-22T08:39:30;6.77;;;2.70;;
8139;SDS011;4111;50.972;7.072;2022-11-22T08:41:57;5.70;;;2.10;;
8139;SDS011;4111;50.972;7.072;2022-11-22T08:44:23;5.87;;;2.00;;
8139;SDS011;4111;50.972;7.072;2022-11-22T08:46:50;5.13;;;1.73;;
8139;SDS011;4111;50.972;7.072;2022-11-22T08:49:16;7.50;;;2.10;;
8139;SDS011;4111;50.972;7.072;2022-11-22T08:51:43;7.23;;;2.30;;
8139;SDS011;4111;50.972;7.072;2022-11-22T08:54:10;5.23;;;1.80;;
8139;SDS011;4111;50.972;7.072;2022-11-22T08:56:37;6.67;;;2.07;;
8139;SDS011;4111;50.972;7.072;2022-11-22T08:59:04;6.50;;;2.37;;
8139;SDS011;4111;50.972;7.072;2022-11-22T09:01:30;7.60;;;1.90;;
8139;SDS011;4111;50.972;7.072;2022-11-22T09:03:57;8.30;;;2.07;;
8139;SDS011;4111;50.972;7.072;2022-11-22T09:06:24;5.63;;;2.07;;
8139;SDS011;4111;50.972;7.072;2022-11-22T09:09:10;6.83;;;2.57;;
8139;SDS011;4111;50.972;7.072;2022-11-22T09:11:57;6.27;;;2.47;;
8139;SDS011;4111;50.972;7.072;2022-11-22T09:14:23;8.83;;;2.47;;
8139;SDS011;4111;50.972;7.072;2022-11-22T09:16:49;8.70;;;2.80;;
8139;SDS011;4111;50.972;7.072;2022-11-22T09:19:16;10.37;;;2.50;;
8139;SDS011;4111;50.972;7.072;2022-11-22T09:21:42;10.03;;;2.17;;
8139;SDS011;4111;50.972;7.072;2022-11-22T09:24:09;5.97;;;1.93;;
8139;SDS011;4111;50.972;7.072;2022-11-22T09:26:35;6.43;;;2.57;;
8139;SDS011;4111;50.972;7.072;2022-11-22T09:29:01;13.30;;;2.57;;
8139;SDS011;4111;50.972;7.072;2022-11-22T09:31:29;6.10;;;1.87;;
8139;SDS011;4111;50.972;7.072;2022-11-22T09:33:56;6.60;;;2.17;;
8139;SDS011;4111;50.972;7.072;2022-11-22T09:36:23;8.03;;;2.57;;
8139;SDS011;4111;50.972;7.072;2022-11-22T09:38:53;5.93;;;2.13;;
8139;SDS011;4111;50.972;7.072;2022-11-22T09:43:59;6.57;;;2.37;;
8139;SDS011;4111;50.972;7.072;2022-11-22T09:52:31;5.90;;;1.90;;
8139;SDS011;4111;50.972;7.072;2022-11-22T09:55:42;9.60;;;2.80;;
8139;SDS011;4111;50.972;7.072;2022-11-22T09:57:57;4.77;;;2.10;;
8139;SDS011;4111;50.972;7.072;2022-11-22T10:00:34;4.70;;;1.50;;
8139;SDS011;4111;50.972;7.072;2022-11-22T10:05:48;7.73;;;3.00;;
8139;SDS011;4111;50.972;7.072;2022-11-22T10:08:34;5.03;;;1.90;;
8139;SDS011;4111;50.972;7.072;2022-11-22T10:17:00;5.03;;;1.90;;
8139;SDS011;4111;50.972;7.072;2022-11-22T10:20:09;6.00;;;1.87;;
8139;SDS011;4111;50.972;7.072;2022-11-22T10:22:36;6.13;;;1.60;;
8139;SDS011;4111;50.972;7.072;2022-11-22T10:25:08;5.83;;;2.00;;
8139;SDS011;4111;50.972;7.072;2022-11-22T10:27:59;4.53;;;1.83;;
8139;SDS011;4111;50.972;7.072;2022-11-22T10:30:35;8.60;;;2.47;;
8139;SDS011;4111;50.972;7.072;2022-11-22T10:33:17;6.57;;;2.13;;
8139;SDS011;4111;50.972;7.072;2022-11-22T10:46:55;7.13;;;1.93;;
8139;SDS011;4111;50.972;7.072;2022-11-22T10:55:33;3.67;;;1.83;;
8139;SDS011;4111;50.972;7.072;2022-11-22T10:58:16;3.63;;;2.00;;
8139;SDS011;4111;50.972;7.072;2022-11-22T11:00:59;8.57;;;2.43;;
8139;SDS011;4111;50.972;7.072;2022-11-22T11:03:37;4.77;;;2.03;;
8139;SDS011;4111;50.972;7.072;2022-11-22T11:06:16;2.67;;;1.90;;
8139;SDS011;4111;50.972;7.072;2022-11-22T11:09:23;6.47;;;1.87;;
8139;SDS011;4111;50.972;7.072;2022-11-22T11:12:42;4.77;;;1.53;;
8139;SDS011;4111;50.972;7.072;2022-11-22T11:15:16;4.03;;;1.70;;
8139;SDS011;4111;50.972;7.072;2022-11-22T11:17:56;3.57;;;1.87;;
8139;SDS011;4111;50.972;7.072;2022-11-22T11:20:36;4.73;;;2.00;;
8139;SDS011;4111;50.972;7.072;2022-11-22T11:23:07;4.17;;;1.80;;
8139;SDS011;4111;50.972;7.072;2022-11-22T11:25:43;4.63;;;1.40;;
8139;SDS011;4111;50.972;7.072;2022-11-22T11:28:16;6.03;;;1.80;;
8139;SDS011;4111;50.972;7.072;2022-11-22T11:30:47;3.27;;;1.40;;
8139;SDS011;4111;50.972;7.072;2022-11-22T11:36:07;3.47;;;1.57;;
8139;SDS011;4111;50.972;7.072;2022-11-22T11:38:46;3.33;;;1.27;;
8139;SDS011;4111;50.972;7.072;2022-11-22T11:43:44;2.90;;;1.50;;
8139;SDS011;4111;50.972;7.072;2022-11-22T11:46:15;3.43;;;1.30;;
8139;SDS011;4111;50.972;7.072;2022-11-22T11:48:47;5.80;;;1.40;;
8139;SDS011;4111;50.972;7.072;2022-11-22T11:51:20;2.87;;;1.10;;
8139;SDS011;4111;50.972;7.072;2022-11-22T11:53:58;3.80;;;1.40;;
8139;SDS011;4111;50.972;7.072;2022-11-22T11:59:16;4.90;;;1.50;;
8139;SDS011;4111;50.972;7.072;2022-11-22T12:01:58;3.37;;;1.77;;
8139;SDS011;4111;50.972;7.072;2022-11-22T12:04:31;3.23;;;1.30;;
8139;SDS011;4111;50.972;7.072;2022-11-22T12:10:25;2.33;;;1.37;;
8139;SDS011;4111;50.972;7.072;2022-11-22T12:15:53;6.07;;;1.37;;
8139;SDS011;4111;50.972;7.072;2022-11-22T12:21:21;4.17;;;1.67;;
8139;SDS011;4111;50.972;7.072;2022-11-22T12:26:58;3.37;;;1.30;;
8139;SDS011;4111;50.972;7.072;2022-11-22T12:29:25;2.43;;;1.20;;
8139;SDS011;4111;50.972;7.072;2022-11-22T12:31:56;4.57;;;1.30;;
8139;SDS011;4111;50.972;7.072;2022-11-22T12:34:32;4.50;;;2.50;;
8139;SDS011;4111;50.972;7.072;2022-11-22T12:37:13;2.23;;;2.00;;
8139;SDS011;4111;50.972;7.072;2022-11-22T12:39:47;2.73;;;1.40;;
8139;SDS011;4111;50.972;7.072;2022-11-22T12:42:17;2.03;;;1.30;;
8139;SDS011;4111;50.972;7.072;2022-11-22T12:45:10;2.37;;;1.40;;
8139;SDS011;4111;50.972;7.072;2022-11-22T12:47:42;5.27;;;2.00;;
8139;SDS011;4111;50.972;7.072;2022-11-22T12:50:16;2.73;;;1.50;;
8139;SDS011;4111;50.972;7.072;2022-11-22T12:52:50;5.50;;;1.90;;
8139;SDS011;4111;50.972;7.072;2022-11-22T12:55:22;3.33;;;1.73;;
8139;SDS011;4111;50.972;7.072;2022-11-22T13:00:40;3.67;;;1.67;;
8139;SDS011;4111;50.972;7.072;2022-11-22T13:03:22;4.13;;;2.93;;
8139;SDS011;4111;50.972;7.072;2022-11-22T13:05:56;5.50;;;2.90;;
8139;SDS011;4111;50.972;7.072;2022-11-22T13:08:41;4.93;;;1.50;;
8139;SDS011;4111;50.972;7.072;2022-11-22T13:14:19;3.67;;;1.33;;
8139;SDS011;4111;50.972;7.072;2022-11-22T13:16:52;1.60;;;1.00;;
8139;SDS011;4111;50.972;7.072;2022-11-22T13:19:20;2.47;;;1.07;;
8139;SDS011;4111;50.972;7.072;2022-11-22T13:24:57;3.17;;;1.30;;
8139;SDS011;4111;50.972;7.072;2022-11-22T13:27:33;1.93;;;1.17;;
8139;SDS011;4111;50.972;7.072;2022-11-22T13:30:02;4.37;;;1.30;;
8139;SDS011;4111;50.972;7.072;2022-11-22T13:32:30;3.60;;;1.33;;
8139;SDS011;4111;50.972;7.072;2022-11-22T13:37:37;2.57;;;1.50;;
8139;SDS011;4111;50.972;7.072;2022-11-22T13:40:24;3.10;;;1.40;;
8139;SDS011;4111;50.972;7.072;2022-11-22T13:43:29;2.40;;;1.37;;
8139;SDS011;4111;50.972;7.072;2022-11-22T13:45:58;1.97;;;1.10;;
8139;SDS011;4111;50.972;7.072;2022-11-22T13:51:05;1.67;;;1.10;;
8139;SDS011;4111;50.972;7.072;2022-11-22T13:53:40;1.50;;;1.00;;
8139;SDS011;4111;50.972;7.072;2022-11-22T14:14:38;0.60;;;0.60;;
8139;SDS011;4111;50.972;7.072;2022-11-22T14:23:00;0.63;;;0.63;;
8139;SDS011;4111;50.972;7.072;2022-11-22T14:25:53;0.70;;;0.70;;
8139;SDS011;4111;50.972;7.072;2022-11-22T14:31:22;1.90;;;0.73;;
8139;SDS011;4111;50.972;7.072;2022-11-22T14:36:38;0.70;;;0.70;;
8139;SDS011;4111;50.972;7.072;2022-11-22T14:47:42;1.47;;;0.80;;
8139;SDS011;4111;50.972;7.072;2022-11-22T14:50:16;0.60;;;0.60;;
8139;SDS011;4111;50.972;7.072;2022-11-22T14:52:45;1.97;;;0.80;;
8139;SDS011;4111;50.972;7.072;2022-11-22T14:55:14;1.37;;;0.80;;
8139;SDS011;4111;50.972;7.072;2022-11-22T14:57:43;0.97;;;0.90;;
8139;SDS011;4111;50.972;7.072;2022-11-22T15:14:34;1.53;;;1.43;;
8139;SDS011;4111;50.972;7.072;2022-11-22T15:17:46;1.00;;;1.00;;
8139;SDS011;4111;50.972;7.072;2022-11-22T15:20:38;1.77;;;1.50;;
8139;SDS011;4111;50.972;7.072;2022-11-22T15:23:26;1.20;;;1.10;;
8139;SDS011;4111;50.972;7.072;2022-11-22T15:26:15;1.43;;;0.80;;
8139;SDS011;4111;50.972;7.072;2022-11-22T15:29:03;1.10;;;1.00;;
8139;SDS011;4111;50.972;7.072;2022-11-22T15:31:50;1.77;;;1.20;;
8139;SDS011;4111;50.972;7.072;2022-11-22T15:34:37;1.33;;;1.10;;
8139;SDS011;4111;50.972;7.072;2022-11-22T15:37:32;1.00;;;1.00;;
8139;SDS011;4111;50.972;7.072;2022-11-22T15:40:25;2.80;;;1.33;;
8139;SDS011;4111;50.972;7.072;2022-11-22T15:43:11;2.20;;;1.37;;
8139;SDS011;4111;50.972;7.072;2022-11-22T15:46:04;3.87;;;1.30;;
8139;SDS011;4111;50.972;7.072;2022-11-22T15:48:52;1.97;;;1.50;;
8139;SDS011;4111;50.972;7.072;2022-11-22T15:51:49;1.40;;;1.30;;
8139;SDS011;4111;50.972;7.072;2022-11-22T15:54:40;1.47;;;1.13;;
8139;SDS011;4111;50.972;7.072;2022-11-22T15:57:29;1.00;;;1.00;;
8139;SDS011;4111;50.972;7.072;2022-11-22T15:59:59;0.90;;;0.90;;
8139;SDS011;4111;50.972;7.072;2022-11-22T16:02:27;1.50;;;1.40;;
8139;SDS011;4111;50.972;7.072;2022-11-22T16:04:58;1.00;;;0.93;;
8139;SDS011;4111;50.972;7.072;2022-11-22T16:07:47;0.80;;;0.80;;
8139;SDS011;4111;50.972;7.072;2022-11-22T16:10:20;1.33;;;1.03;;
8139;SDS011;4111;50.972;7.072;2022-11-22T16:12:48;0.70;;;0.70;;
8139;SDS011;4111;50.972;7.072;2022-11-22T16:20:35;1.10;;;1.00;;
8139;SDS011;4111;50.972;7.072;2022-11-22T16:23:04;0.90;;;0.90;;
8139;SDS011;4111;50.972;7.072;2022-11-22T16:25:40;0.97;;;0.80;;
8139;SDS011;4111;50.972;7.072;2022-11-22T16:31:29;0.70;;;0.70;;
8139;SDS011;4111;50.972;7.072;2022-11-22T16:33:53;1.20;;;1.10;;
8139;SDS011;4111;50.972;7.072;2022-11-22T16:36:21;2.67;;;1.40;;
8139;SDS011;4111;50.972;7.072;2022-11-22T16:38:49;1.30;;;1.30;;
8139;SDS011;4111;50.972;7.072;2022-11-22T16:41:23;0.80;;;0.80;;
8139;SDS011;4111;50.972;7.072;2022-11-22T16:43:52;0.70;;;0.70;;
8139;SDS011;4111;50.972;7.072;2022-11-22T16:46:20;1.10;;;1.00;;
8139;SDS011;4111;50.972;7.072;2022-11-22T16:48:47;1.40;;;1.30;;
8139;SDS011;4111;50.972;7.072;2022-11-22T16:51:14;1.43;;;1.33;;
8139;SDS011;4111;50.972;7.072;2022-11-22T16:53:45;1.10;;;1.10;;
8139;SDS011;4111;50.972;7.072;2022-11-22T16:56:17;1.43;;;1.27;;
8139;SDS011;4111;50.972;7.072;2022-11-22T16:58:46;1.30;;;1.20;;
8139;SDS011;4111;50.972;7.072;2022-11-22T17:01:14;2.17;;;1.57;;
8139;SDS011;4111;50.972;7.072;2022-11-22T17:03:42;1.40;;;1.30;;
8139;SDS011;4111;50.972;7.072;2022-11-22T17:06:13;2.10;;;1.90;;
8139;SDS011;4111;50.972;7.072;2022-11-22T17:08:45;1.93;;;1.60;;
8139;SDS011;4111;50.972;7.072;2022-11-22T17:11:13;3.40;;;1.30;;
8139;SDS011;4111;50.972;7.072;2022-11-22T17:13:43;1.23;;;1.17;;
8139;SDS011;4111;50.972;7.072;2022-11-22T17:16:10;1.33;;;1.23;;
8139;SDS011;4111;50.972;7.072;2022-11-22T17:18:37;3.67;;;1.70;;
8139;SDS011;4111;50.972;7.072;2022-11-22T17:21:05;1.17;;;1.17;;
8139;SDS011;4111;50.972;7.072;2022-11-22T17:23:40;1.10;;;1.10;;
8139;SDS011;4111;50.972;7.072;2022-11-22T17:26:08;1.27;;;1.20;;
8139;SDS011;4111;50.972;7.072;2022-11-22T17:28:35;1.50;;;1.40;;
8139;SDS011;4111;50.972;7.072;2022-11-22T17:31:01;1.47;;;1.37;;
8139;SDS011;4111;50.972;7.072;2022-11-22T17:33:28;2.00;;;1.90;;
8139;SDS011;4111;50.972;7.072;2022-11-22T17:35:54;1.20;;;1.10;;
8139;SDS011;4111;50.972;7.072;2022-11-22T17:38:21;0.70;;;0.70;;
8139;SDS011;4111;50.972;7.072;2022-11-22T17:40:53;1.13;;;0.93;;
8139;SDS011;4111;50.972;7.072;2022-11-22T17:43:23;1.03;;;1.03;;
8139;SDS011;4111;50.972;7.072;2022-11-22T17:45:50;1.03;;;1.03;;
8139;SDS011;4111;50.972;7.072;2022-11-22T17:48:16;1.30;;;1.30;;
8139;SDS011;4111;50.972;7.072;2022-11-22T17:50:43;1.27;;;1.27;;